sensor_id;sensor_type;location;lat;lon;timestamp;temperature;humidity
8436;DHT22;4255;48.730;9.156;2022-08-25T00:01:36;21.80;99.90
8436;DHT22;4255;48.730;9.156;2022-08-25T00:04:05;21.70;99.90
8436;DHT22;4255;48.730;9.156;2022-08-25T00:06:31;21.70;99.90
8436;DHT22;4255;48.730;9.156;2022-08-25T00:08:57;21.70;99.90
8436;DHT22;4255;48.730;9.156;2022-08-25T00:11:27;21.80;99.90
8436;DHT22;4255;48.730;9.156;2022-08-25T00:13:57;21.80;99.90
8436;DHT22;4255;48.730;9.156;2022-08-25T00:16:25;21.80;99.90
8436;DHT22;4255;48.730;9.156;2022-08-25T00:18:54;21.80;99.90
8436;DHT22;4255;48.730;9.156;2022-08-25T00:21:20;21.70;99.90
8436;DHT22;4255;48.730;9.156;2022-08-25T00:23:46;21.80;99.90
8436;DHT22;4255;48.730;9.156;2022-08-25T00:26:13;21.70;99.90
8436;DHT22;4255;48.730;9.156;2022-08-25T00:28:40;21.70;99.90
8436;DHT22;4255;48.730;9.156;2022-08-25T00:31:10;21.70;99.90
8436;DHT22;4255;48.730;9.156;2022-08-25T00:33:36;21.60;99.90
8436;DHT22;4255;48.730;9.156;2022-08-25T00:36:03;21.50;99.90
8436;DHT22;4255;48.730;9.156;2022-08-25T00:38:28;21.50;99.90
8436;DHT22;4255;48.730;9.156;2022-08-25T00:40:54;21.40;99.90
8436;DHT22;4255;48.730;9.156;2022-08-25T00:46:23;21.40;99.90
8436;DHT22;4255;48.730;9.156;2022-08-25T00:48:55;21.40;99.90
8436;DHT22;4255;48.730;9.156;2022-08-25T00:51:54;21.40;99.90
8436;DHT22;4255;48.730;9.156;2022-08-25T00:54:23;21.40;99.90
8436;DHT22;4255;48.730;9.156;2022-08-25T00:56:50;21.30;99.90
8436;DHT22;4255;48.730;9.156;2022-08-25T00:59:19;21.30;99.90
8436;DHT22;4255;48.730;9.156;2022-08-25T01:01:47;21.20;99.90
8436;DHT22;4255;48.730;9.156;2022-08-25T01:04:13;21.20;99.90
8436;DHT22;4255;48.730;9.156;2022-08-25T01:06:41;21.20;99.90
8436;DHT22;4255;48.730;9.156;2022-08-25T01:09:11;21.10;99.90
8436;DHT22;4255;48.730;9.156;2022-08-25T01:11:39;21.00;99.90
8436;DHT22;4255;48.730;9.156;2022-08-25T01:14:05;21.00;99.90
8436;DHT22;4255;48.730;9.156;2022-08-25T01:16:36;21.00;99.90
8436;DHT22;4255;48.730;9.156;2022-08-25T01:19:03;21.00;99.90
8436;DHT22;4255;48.730;9.156;2022-08-25T01:21:31;20.90;99.90
8436;DHT22;4255;48.730;9.156;2022-08-25T01:24:02;20.90;99.90
8436;DHT22;4255;48.730;9.156;2022-08-25T01:26:31;20.80;99.90
8436;DHT22;4255;48.730;9.156;2022-08-25T01:28:59;20.80;99.90
8436;DHT22;4255;48.730;9.156;2022-08-25T01:31:44;20.70;99.90
8436;DHT22;4255;48.730;9.156;2022-08-25T01:34:11;20.60;99.90
8436;DHT22;4255;48.730;9.156;2022-08-25T01:36:37;20.60;99.90
8436;DHT22;4255;48.730;9.156;2022-08-25T01:39:03;20.50;99.90
8436;DHT22;4255;48.730;9.156;2022-08-25T01:41:39;20.50;99.90
8436;DHT22;4255;48.730;9.156;2022-08-25T01:44:06;20.50;99.90
8436;DHT22;4255;48.730;9.156;2022-08-25T01:46:32;20.50;99.90
8436;DHT22;4255;48.730;9.156;2022-08-25T01:49:00;20.50;99.90
8436;DHT22;4255;48.730;9.156;2022-08-25T01:51:28;20.60;99.90
8436;DHT22;4255;48.730;9.156;2022-08-25T01:53:54;20.60;99.90
8436;DHT22;4255;48.730;9.156;2022-08-25T01:56:20;20.60;99.90
8436;DHT22;4255;48.730;9.156;2022-08-25T01:58:47;20.50;99.90
8436;DHT22;4255;48.730;9.156;2022-08-25T02:01:19;20.50;99.90
8436;DHT22;4255;48.730;9.156;2022-08-25T02:03:48;20.40;99.90
8436;DHT22;4255;48.730;9.156;2022-08-25T02:06:17;20.50;99.90
8436;DHT22;4255;48.730;9.156;2022-08-25T02:08:43;20.50;99.90
8436;DHT22;4255;48.730;9.156;2022-08-25T02:11:13;20.50;99.90
8436;DHT22;4255;48.730;9.156;2022-08-25T02:13:40;20.60;99.90
8436;DHT22;4255;48.730;9.156;2022-08-25T02:16:07;20.50;99.90
8436;DHT22;4255;48.730;9.156;2022-08-25T02:18:34;20.40;99.90
8436;DHT22;4255;48.730;9.156;2022-08-25T02:20:59;20.40;99.90
8436;DHT22;4255;48.730;9.156;2022-08-25T02:23:25;20.30;99.90
8436;DHT22;4255;48.730;9.156;2022-08-25T02:25:51;20.20;99.90
8436;DHT22;4255;48.730;9.156;2022-08-25T02:28:17;20.10;99.90
8436;DHT22;4255;48.730;9.156;2022-08-25T02:30:43;20.10;99.90
8436;DHT22;4255;48.730;9.156;2022-08-25T02:33:09;20.10;99.90
8436;DHT22;4255;48.730;9.156;2022-08-25T02:35:35;20.10;99.90
8436;DHT22;4255;48.730;9.156;2022-08-25T02:38:02;20.20;99.90
8436;DHT22;4255;48.730;9.156;2022-08-25T02:40:28;20.10;99.90
8436;DHT22;4255;48.730;9.156;2022-08-25T02:42:54;20.20;99.90
8436;DHT22;4255;48.730;9.156;2022-08-25T02:45:21;20.10;99.90
8436;DHT22;4255;48.730;9.156;2022-08-25T02:47:47;20.10;99.90
8436;DHT22;4255;48.730;9.156;2022-08-25T02:50:13;20.10;99.90
8436;DHT22;4255;48.730;9.156;2022-08-25T02:52:39;20.10;99.90
8436;DHT22;4255;48.730;9.156;2022-08-25T02:55:08;20.10;99.90
8436;DHT22;4255;48.730;9.156;2022-08-25T02:57:34;20.10;99.90
8436;DHT22;4255;48.730;9.156;2022-08-25T03:00:00;20.00;99.90
8436;DHT22;4255;48.730;9.156;2022-08-25T03:02:26;20.00;99.90
8436;DHT22;4255;48.730;9.156;2022-08-25T03:04:53;20.00;99.90
8436;DHT22;4255;48.730;9.156;2022-08-25T03:07:19;20.00;99.90
8436;DHT22;4255;48.730;9.156;2022-08-25T03:09:46;20.00;99.90
8436;DHT22;4255;48.730;9.156;2022-08-25T03:12:12;20.00;99.90
8436;DHT22;4255;48.730;9.156;2022-08-25T03:14:39;20.00;99.90
8436;DHT22;4255;48.730;9.156;2022-08-25T03:17:06;20.00;99.90
8436;DHT22;4255;48.730;9.156;2022-08-25T03:19:32;19.90;99.90
8436;DHT22;4255;48.730;9.156;2022-08-25T03:21:58;19.90;99.90
8436;DHT22;4255;48.730;9.156;2022-08-25T03:24:24;19.90;99.90
8436;DHT22;4255;48.730;9.156;2022-08-25T03:26:50;19.90;99.90
8436;DHT22;4255;48.730;9.156;2022-08-25T03:29:25;19.90;99.90
8436;DHT22;4255;48.730;9.156;2022-08-25T03:31:53;19.90;99.90
8436;DHT22;4255;48.730;9.156;2022-08-25T03:34:21;20.00;99.90
8436;DHT22;4255;48.730;9.156;2022-08-25T03:36:50;20.00;99.90
8436;DHT22;4255;48.730;9.156;2022-08-25T03:39:18;19.90;99.90
8436;DHT22;4255;48.730;9.156;2022-08-25T03:41:44;19.90;99.90
8436;DHT22;4255;48.730;9.156;2022-08-25T03:44:12;19.90;99.90
8436;DHT22;4255;48.730;9.156;2022-08-25T03:46:43;19.90;99.90
8436;DHT22;4255;48.730;9.156;2022-08-25T03:49:13;19.90;99.90
8436;DHT22;4255;48.730;9.156;2022-08-25T03:51:45;19.80;99.90
8436;DHT22;4255;48.730;9.156;2022-08-25T03:54:17;19.80;99.90
8436;DHT22;4255;48.730;9.156;2022-08-25T03:56:43;19.70;99.90
8436;DHT22;4255;48.730;9.156;2022-08-25T03:59:09;19.60;99.90
8436;DHT22;4255;48.730;9.156;2022-08-25T04:01:37;19.70;99.90
8436;DHT22;4255;48.730;9.156;2022-08-25T04:04:03;19.60;99.90
8436;DHT22;4255;48.730;9.156;2022-08-25T04:06:29;19.50;99.90
8436;DHT22;4255;48.730;9.156;2022-08-25T04:08:55;19.40;99.90
8436;DHT22;4255;48.730;9.156;2022-08-25T04:11:24;19.30;99.90
8436;DHT22;4255;48.730;9.156;2022-08-25T04:13:51;19.30;99.90
8436;DHT22;4255;48.730;9.156;2022-08-25T04:16:25;19.20;99.90
8436;DHT22;4255;48.730;9.156;2022-08-25T04:18:53;19.40;99.90
8436;DHT22;4255;48.730;9.156;2022-08-25T04:21:19;19.40;99.90
8436;DHT22;4255;48.730;9.156;2022-08-25T04:23:47;19.40;99.90
8436;DHT22;4255;48.730;9.156;2022-08-25T04:26:17;19.50;99.90
8436;DHT22;4255;48.730;9.156;2022-08-25T04:28:44;19.50;99.90
8436;DHT22;4255;48.730;9.156;2022-08-25T04:31:12;19.60;99.90
8436;DHT22;4255;48.730;9.156;2022-08-25T04:33:39;19.60;99.90
8436;DHT22;4255;48.730;9.156;2022-08-25T04:36:07;19.60;99.90
8436;DHT22;4255;48.730;9.156;2022-08-25T04:38:33;19.60;99.90
8436;DHT22;4255;48.730;9.156;2022-08-25T04:41:01;19.60;99.90
8436;DHT22;4255;48.730;9.156;2022-08-25T04:43:28;19.70;99.90
8436;DHT22;4255;48.730;9.156;2022-08-25T04:45:54;19.70;99.90
8436;DHT22;4255;48.730;9.156;2022-08-25T04:48:21;19.70;99.90
8436;DHT22;4255;48.730;9.156;2022-08-25T04:50:47;19.70;99.90
8436;DHT22;4255;48.730;9.156;2022-08-25T04:53:13;19.80;99.90
8436;DHT22;4255;48.730;9.156;2022-08-25T04:55:44;19.70;99.90
8436;DHT22;4255;48.730;9.156;2022-08-25T04:58:11;19.70;99.90
8436;DHT22;4255;48.730;9.156;2022-08-25T05:00:38;19.70;99.90
8436;DHT22;4255;48.730;9.156;2022-08-25T05:03:04;19.70;99.90
8436;DHT22;4255;48.730;9.156;2022-08-25T05:05:30;19.60;99.90
8436;DHT22;4255;48.730;9.156;2022-08-25T05:07:56;19.60;99.90
8436;DHT22;4255;48.730;9.156;2022-08-25T05:10:22;19.60;99.90
8436;DHT22;4255;48.730;9.156;2022-08-25T05:12:49;19.70;99.90
8436;DHT22;4255;48.730;9.156;2022-08-25T05:15:15;19.70;99.90
8436;DHT22;4255;48.730;9.156;2022-08-25T05:17:59;19.80;99.90
8436;DHT22;4255;48.730;9.156;2022-08-25T05:20:25;19.80;99.90
8436;DHT22;4255;48.730;9.156;2022-08-25T05:22:51;19.80;99.90
8436;DHT22;4255;48.730;9.156;2022-08-25T05:25:17;19.80;99.90
8436;DHT22;4255;48.730;9.156;2022-08-25T05:27:43;19.80;99.90
8436;DHT22;4255;48.730;9.156;2022-08-25T05:30:10;19.90;99.90
8436;DHT22;4255;48.730;9.156;2022-08-25T05:32:36;20.10;99.90
8436;DHT22;4255;48.730;9.156;2022-08-25T05:35:03;20.20;99.90
8436;DHT22;4255;48.730;9.156;2022-08-25T05:37:29;20.30;99.90
8436;DHT22;4255;48.730;9.156;2022-08-25T05:39:54;20.50;99.90
8436;DHT22;4255;48.730;9.156;2022-08-25T05:42:20;20.70;99.90
8436;DHT22;4255;48.730;9.156;2022-08-25T05:44:47;20.80;99.90
8436;DHT22;4255;48.730;9.156;2022-08-25T05:47:13;20.80;99.90
8436;DHT22;4255;48.730;9.156;2022-08-25T05:49:39;20.90;99.90
8436;DHT22;4255;48.730;9.156;2022-08-25T05:52:04;21.10;99.90
8436;DHT22;4255;48.730;9.156;2022-08-25T05:54:30;21.20;99.90
8436;DHT22;4255;48.730;9.156;2022-08-25T05:56:56;21.30;99.90
8436;DHT22;4255;48.730;9.156;2022-08-25T05:59:23;21.40;99.90
8436;DHT22;4255;48.730;9.156;2022-08-25T06:01:48;21.40;99.90
8436;DHT22;4255;48.730;9.156;2022-08-25T06:04:33;21.50;99.90
8436;DHT22;4255;48.730;9.156;2022-08-25T06:06:59;21.70;99.90
8436;DHT22;4255;48.730;9.156;2022-08-25T06:09:25;21.90;99.90
8436;DHT22;4255;48.730;9.156;2022-08-25T06:11:51;22.00;99.90
8436;DHT22;4255;48.730;9.156;2022-08-25T06:14:17;22.10;99.90
8436;DHT22;4255;48.730;9.156;2022-08-25T06:16:44;22.20;99.90
8436;DHT22;4255;48.730;9.156;2022-08-25T06:19:10;22.30;99.90
8436;DHT22;4255;48.730;9.156;2022-08-25T06:21:36;22.40;99.90
8436;DHT22;4255;48.730;9.156;2022-08-25T06:24:06;22.30;99.90
8436;DHT22;4255;48.730;9.156;2022-08-25T06:26:32;22.40;99.90
8436;DHT22;4255;48.730;9.156;2022-08-25T06:28:58;22.40;99.90
8436;DHT22;4255;48.730;9.156;2022-08-25T06:31:23;22.40;99.90
8436;DHT22;4255;48.730;9.156;2022-08-25T06:33:49;22.50;99.90
8436;DHT22;4255;48.730;9.156;2022-08-25T06:36:16;22.70;99.90
8436;DHT22;4255;48.730;9.156;2022-08-25T06:38:42;22.70;99.90
8436;DHT22;4255;48.730;9.156;2022-08-25T06:41:08;22.60;99.90
8436;DHT22;4255;48.730;9.156;2022-08-25T06:43:39;22.80;99.90
8436;DHT22;4255;48.730;9.156;2022-08-25T06:46:12;22.80;99.90
8436;DHT22;4255;48.730;9.156;2022-08-25T06:48:38;23.00;99.90
8436;DHT22;4255;48.730;9.156;2022-08-25T06:51:09;23.10;99.90
8436;DHT22;4255;48.730;9.156;2022-08-25T06:53:35;23.10;99.90
8436;DHT22;4255;48.730;9.156;2022-08-25T06:56:01;23.30;99.90
8436;DHT22;4255;48.730;9.156;2022-08-25T06:58:27;23.40;99.90
8436;DHT22;4255;48.730;9.156;2022-08-25T07:00:53;23.60;99.90
8436;DHT22;4255;48.730;9.156;2022-08-25T07:03:19;23.70;99.90
8436;DHT22;4255;48.730;9.156;2022-08-25T07:05:52;23.80;99.90
8436;DHT22;4255;48.730;9.156;2022-08-25T07:08:19;24.10;99.90
8436;DHT22;4255;48.730;9.156;2022-08-25T07:10:45;23.90;99.90
8436;DHT22;4255;48.730;9.156;2022-08-25T07:13:11;23.90;99.90
8436;DHT22;4255;48.730;9.156;2022-08-25T07:15:38;24.10;99.90
8436;DHT22;4255;48.730;9.156;2022-08-25T07:18:04;24.40;99.90
8436;DHT22;4255;48.730;9.156;2022-08-25T07:20:32;24.30;99.90
8436;DHT22;4255;48.730;9.156;2022-08-25T07:22:58;24.30;99.90
8436;DHT22;4255;48.730;9.156;2022-08-25T07:25:23;24.30;99.90
8436;DHT22;4255;48.730;9.156;2022-08-25T07:27:49;24.20;99.90
8436;DHT22;4255;48.730;9.156;2022-08-25T07:30:16;24.10;99.90
8436;DHT22;4255;48.730;9.156;2022-08-25T07:32:41;24.10;99.90
8436;DHT22;4255;48.730;9.156;2022-08-25T07:35:08;24.00;99.90
8436;DHT22;4255;48.730;9.156;2022-08-25T07:37:49;23.90;99.90
8436;DHT22;4255;48.730;9.156;2022-08-25T07:40:36;24.10;99.90
8436;DHT22;4255;48.730;9.156;2022-08-25T07:43:05;24.20;99.90
8436;DHT22;4255;48.730;9.156;2022-08-25T07:45:34;24.00;99.90
8436;DHT22;4255;48.730;9.156;2022-08-25T07:48:06;24.00;99.90
8436;DHT22;4255;48.730;9.156;2022-08-25T07:50:32;24.30;99.90
8436;DHT22;4255;48.730;9.156;2022-08-25T07:52:59;24.30;99.90
8436;DHT22;4255;48.730;9.156;2022-08-25T07:55:27;24.50;99.90
8436;DHT22;4255;48.730;9.156;2022-08-25T07:57:54;24.60;99.90
8436;DHT22;4255;48.730;9.156;2022-08-25T08:00:21;24.40;99.90
8436;DHT22;4255;48.730;9.156;2022-08-25T08:02:47;24.50;99.90
8436;DHT22;4255;48.730;9.156;2022-08-25T08:05:13;24.40;99.90
8436;DHT22;4255;48.730;9.156;2022-08-25T08:07:40;24.60;99.90
8436;DHT22;4255;48.730;9.156;2022-08-25T08:10:07;24.90;99.90
8436;DHT22;4255;48.730;9.156;2022-08-25T08:12:34;24.90;99.90
8436;DHT22;4255;48.730;9.156;2022-08-25T08:15:00;24.90;99.90
8436;DHT22;4255;48.730;9.156;2022-08-25T08:17:27;24.90;99.90
8436;DHT22;4255;48.730;9.156;2022-08-25T08:19:53;25.20;99.90
8436;DHT22;4255;48.730;9.156;2022-08-25T08:22:18;25.20;99.90
8436;DHT22;4255;48.730;9.156;2022-08-25T08:24:44;25.40;99.90
8436;DHT22;4255;48.730;9.156;2022-08-25T08:27:12;25.70;99.90
8436;DHT22;4255;48.730;9.156;2022-08-25T08:29:40;25.80;99.90
8436;DHT22;4255;48.730;9.156;2022-08-25T08:32:08;25.70;99.90
8436;DHT22;4255;48.730;9.156;2022-08-25T08:34:35;25.60;99.90
8436;DHT22;4255;48.730;9.156;2022-08-25T08:37:01;25.90;99.90
8436;DHT22;4255;48.730;9.156;2022-08-25T08:39:28;26.10;99.90
8436;DHT22;4255;48.730;9.156;2022-08-25T08:42:16;26.00;99.90
8436;DHT22;4255;48.730;9.156;2022-08-25T08:53:08;26.20;99.90
8436;DHT22;4255;48.730;9.156;2022-08-25T08:55:52;26.30;99.90
8436;DHT22;4255;48.730;9.156;2022-08-25T08:58:22;26.50;99.90
8436;DHT22;4255;48.730;9.156;2022-08-25T09:00:52;26.70;99.90
8436;DHT22;4255;48.730;9.156;2022-08-25T09:03:49;26.60;99.90
8436;DHT22;4255;48.730;9.156;2022-08-25T09:06:24;26.50;99.90
8436;DHT22;4255;48.730;9.156;2022-08-25T09:08:54;26.50;99.90
8436;DHT22;4255;48.730;9.156;2022-08-25T09:16:44;26.50;99.90
8436;DHT22;4255;48.730;9.156;2022-08-25T09:30:21;27.50;99.90
8436;DHT22;4255;48.730;9.156;2022-08-25T09:32:53;27.70;99.90
8436;DHT22;4255;48.730;9.156;2022-08-25T09:35:28;27.70;99.90
8436;DHT22;4255;48.730;9.156;2022-08-25T09:40:30;26.80;99.90
8436;DHT22;4255;48.730;9.156;2022-08-25T09:43:01;26.80;99.90
8436;DHT22;4255;48.730;9.156;2022-08-25T09:48:28;27.50;99.90
8436;DHT22;4255;48.730;9.156;2022-08-25T09:51:01;27.80;99.90
8436;DHT22;4255;48.730;9.156;2022-08-25T09:53:34;27.70;99.90
8436;DHT22;4255;48.730;9.156;2022-08-25T09:56:04;27.80;99.90
8436;DHT22;4255;48.730;9.156;2022-08-25T09:58:32;27.70;99.90
8436;DHT22;4255;48.730;9.156;2022-08-25T10:01:17;27.50;99.90
8436;DHT22;4255;48.730;9.156;2022-08-25T10:06:18;27.80;99.90
8436;DHT22;4255;48.730;9.156;2022-08-25T10:11:13;27.60;99.90
8436;DHT22;4255;48.730;9.156;2022-08-25T10:14:02;27.60;99.90
8436;DHT22;4255;48.730;9.156;2022-08-25T10:16:30;27.70;99.90
8436;DHT22;4255;48.730;9.156;2022-08-25T10:19:10;28.00;99.90
8436;DHT22;4255;48.730;9.156;2022-08-25T10:21:39;28.10;99.90
8436;DHT22;4255;48.730;9.156;2022-08-25T10:24:07;27.90;99.90
8436;DHT22;4255;48.730;9.156;2022-08-25T10:29:43;27.40;99.90
8436;DHT22;4255;48.730;9.156;2022-08-25T10:36:07;28.40;99.90
8436;DHT22;4255;48.730;9.156;2022-08-25T10:38:15;28.70;99.90
8436;DHT22;4255;48.730;9.156;2022-08-25T10:46:14;29.60;99.90
8436;DHT22;4255;48.730;9.156;2022-08-25T10:54:13;29.70;99.90
8436;DHT22;4255;48.730;9.156;2022-08-25T10:56:52;30.10;99.90
8436;DHT22;4255;48.730;9.156;2022-08-25T10:59:27;30.20;99.90
8436;DHT22;4255;48.730;9.156;2022-08-25T11:04:36;30.20;99.90
8436;DHT22;4255;48.730;9.156;2022-08-25T11:07:24;30.10;99.90
8436;DHT22;4255;48.730;9.156;2022-08-25T11:09:53;30.10;99.90
8436;DHT22;4255;48.730;9.156;2022-08-25T11:12:32;29.90;99.90
8436;DHT22;4255;48.730;9.156;2022-08-25T11:15:03;29.80;99.90
8436;DHT22;4255;48.730;9.156;2022-08-25T11:20:13;29.50;99.90
8436;DHT22;4255;48.730;9.156;2022-08-25T11:22:45;29.30;99.90
8436;DHT22;4255;48.730;9.156;2022-08-25T11:25:36;29.50;99.90
8436;DHT22;4255;48.730;9.156;2022-08-25T11:28:08;29.70;99.90
8436;DHT22;4255;48.730;9.156;2022-08-25T11:30:36;29.60;99.90
8436;DHT22;4255;48.730;9.156;2022-08-25T11:33:05;29.60;99.90
8436;DHT22;4255;48.730;9.156;2022-08-25T11:35:55;29.90;99.90
8436;DHT22;4255;48.730;9.156;2022-08-25T11:52:08;29.90;99.90
8436;DHT22;4255;48.730;9.156;2022-08-25T11:54:51;30.10;99.90
8436;DHT22;4255;48.730;9.156;2022-08-25T11:57:20;30.40;99.90
8436;DHT22;4255;48.730;9.156;2022-08-25T12:04:56;30.50;99.90
8436;DHT22;4255;48.730;9.156;2022-08-25T12:07:28;30.50;99.90
8436;DHT22;4255;48.730;9.156;2022-08-25T12:10:10;30.60;99.90
8436;DHT22;4255;48.730;9.156;2022-08-25T12:18:38;31.30;99.90
8436;DHT22;4255;48.730;9.156;2022-08-25T12:23:39;31.10;99.90
8436;DHT22;4255;48.730;9.156;2022-08-25T12:29:13;31.50;99.90
8436;DHT22;4255;48.730;9.156;2022-08-25T12:32:18;31.70;99.90
8436;DHT22;4255;48.730;9.156;2022-08-25T12:41:02;31.50;99.90
8436;DHT22;4255;48.730;9.156;2022-08-25T12:43:45;31.50;99.20
8436;DHT22;4255;48.730;9.156;2022-08-25T12:52:12;30.80;98.50
8436;DHT22;4255;48.730;9.156;2022-08-25T12:54:55;30.80;98.50
8436;DHT22;4255;48.730;9.156;2022-08-25T13:00:18;30.40;99.50
8436;DHT22;4255;48.730;9.156;2022-08-25T13:06:02;31.10;99.40
8436;DHT22;4255;48.730;9.156;2022-08-25T13:11:36;31.20;97.50
8436;DHT22;4255;48.730;9.156;2022-08-25T13:14:13;30.90;97.40
8436;DHT22;4255;48.730;9.156;2022-08-25T13:16:52;31.10;97.70
8436;DHT22;4255;48.730;9.156;2022-08-25T13:19:19;31.40;98.50
8436;DHT22;4255;48.730;9.156;2022-08-25T13:21:45;31.60;97.90
8436;DHT22;4255;48.730;9.156;2022-08-25T13:24:29;31.90;96.50
8436;DHT22;4255;48.730;9.156;2022-08-25T13:26:59;31.80;96.00
8436;DHT22;4255;48.730;9.156;2022-08-25T13:29:28;31.80;96.80
8436;DHT22;4255;48.730;9.156;2022-08-25T13:32:01;31.90;97.50
8436;DHT22;4255;48.730;9.156;2022-08-25T13:34:30;32.10;95.90
8436;DHT22;4255;48.730;9.156;2022-08-25T13:37:07;31.90;95.70
8436;DHT22;4255;48.730;9.156;2022-08-25T13:42:47;31.90;95.80
8436;DHT22;4255;48.730;9.156;2022-08-25T13:45:17;32.10;95.70
8436;DHT22;4255;48.730;9.156;2022-08-25T13:47:44;32.30;95.80
8436;DHT22;4255;48.730;9.156;2022-08-25T13:57:59;32.60;94.30
8436;DHT22;4255;48.730;9.156;2022-08-25T14:02:53;32.70;94.50
8436;DHT22;4255;48.730;9.156;2022-08-25T14:08:00;32.70;94.50
8436;DHT22;4255;48.730;9.156;2022-08-25T14:10:34;32.60;94.00
8436;DHT22;4255;48.730;9.156;2022-08-25T14:15:51;32.70;93.80
8436;DHT22;4255;48.730;9.156;2022-08-25T14:18:29;32.80;92.10
8436;DHT22;4255;48.730;9.156;2022-08-25T14:20:56;32.80;91.50
8436;DHT22;4255;48.730;9.156;2022-08-25T14:23:28;32.90;92.10
8436;DHT22;4255;48.730;9.156;2022-08-25T14:25:56;33.20;91.90
8436;DHT22;4255;48.730;9.156;2022-08-25T14:28:25;33.20;91.10
8436;DHT22;4255;48.730;9.156;2022-08-25T14:30:58;33.00;89.80
8436;DHT22;4255;48.730;9.156;2022-08-25T14:33:28;33.20;90.60
8436;DHT22;4255;48.730;9.156;2022-08-25T14:35:57;33.40;90.50
8436;DHT22;4255;48.730;9.156;2022-08-25T14:38:24;33.60;90.10
8436;DHT22;4255;48.730;9.156;2022-08-25T14:40:51;33.50;89.80
8436;DHT22;4255;48.730;9.156;2022-08-25T14:43:18;33.30;89.80
8436;DHT22;4255;48.730;9.156;2022-08-25T14:45:45;33.50;88.40
8436;DHT22;4255;48.730;9.156;2022-08-25T14:48:23;33.70;88.30
8436;DHT22;4255;48.730;9.156;2022-08-25T14:50:51;33.70;87.30
8436;DHT22;4255;48.730;9.156;2022-08-25T14:53:17;33.70;84.00
8436;DHT22;4255;48.730;9.156;2022-08-25T14:55:42;33.70;84.90
8436;DHT22;4255;48.730;9.156;2022-08-25T14:58:08;33.70;85.20
8436;DHT22;4255;48.730;9.156;2022-08-25T15:00:41;33.40;85.40
8436;DHT22;4255;48.730;9.156;2022-08-25T15:03:12;33.10;85.90
8436;DHT22;4255;48.730;9.156;2022-08-25T15:05:40;32.50;88.00
8436;DHT22;4255;48.730;9.156;2022-08-25T15:08:08;32.40;88.60
8436;DHT22;4255;48.730;9.156;2022-08-25T15:10:53;32.40;89.30
8436;DHT22;4255;48.730;9.156;2022-08-25T15:13:19;32.40;88.80
8436;DHT22;4255;48.730;9.156;2022-08-25T15:15:45;32.30;88.50
8436;DHT22;4255;48.730;9.156;2022-08-25T15:18:11;32.10;88.20
8436;DHT22;4255;48.730;9.156;2022-08-25T15:20:37;32.20;88.40
8436;DHT22;4255;48.730;9.156;2022-08-25T15:23:03;32.50;88.50
8436;DHT22;4255;48.730;9.156;2022-08-25T15:25:29;32.60;85.80
8436;DHT22;4255;48.730;9.156;2022-08-25T15:27:55;32.90;85.90
8436;DHT22;4255;48.730;9.156;2022-08-25T15:30:21;33.20;86.70
8436;DHT22;4255;48.730;9.156;2022-08-25T15:32:47;33.40;87.00
8436;DHT22;4255;48.730;9.156;2022-08-25T15:35:12;33.30;87.80
8436;DHT22;4255;48.730;9.156;2022-08-25T15:37:38;33.20;88.10
8436;DHT22;4255;48.730;9.156;2022-08-25T15:40:05;33.40;88.10
8436;DHT22;4255;48.730;9.156;2022-08-25T15:42:33;33.60;87.90
8436;DHT22;4255;48.730;9.156;2022-08-25T15:44:58;33.50;86.50
8436;DHT22;4255;48.730;9.156;2022-08-25T15:47:24;33.10;86.40
8436;DHT22;4255;48.730;9.156;2022-08-25T15:50:06;33.10;86.90
8436;DHT22;4255;48.730;9.156;2022-08-25T15:52:32;32.90;86.50
8436;DHT22;4255;48.730;9.156;2022-08-25T15:54:58;32.60;86.90
8436;DHT22;4255;48.730;9.156;2022-08-25T15:57:24;32.60;86.60
8436;DHT22;4255;48.730;9.156;2022-08-25T15:59:50;32.50;87.20
8436;DHT22;4255;48.730;9.156;2022-08-25T16:02:16;32.40;88.30
8436;DHT22;4255;48.730;9.156;2022-08-25T16:04:42;32.20;86.80
8436;DHT22;4255;48.730;9.156;2022-08-25T16:07:08;32.20;87.00
8436;DHT22;4255;48.730;9.156;2022-08-25T16:09:34;32.20;87.20
8436;DHT22;4255;48.730;9.156;2022-08-25T16:12:00;32.10;87.80
8436;DHT22;4255;48.730;9.156;2022-08-25T16:14:26;32.20;87.40
8436;DHT22;4255;48.730;9.156;2022-08-25T16:16:52;32.30;87.70
8436;DHT22;4255;48.730;9.156;2022-08-25T16:19:18;32.30;87.50
8436;DHT22;4255;48.730;9.156;2022-08-25T16:21:43;32.30;87.70
8436;DHT22;4255;48.730;9.156;2022-08-25T16:24:09;32.30;87.40
8436;DHT22;4255;48.730;9.156;2022-08-25T16:26:36;32.20;86.80
8436;DHT22;4255;48.730;9.156;2022-08-25T16:29:08;32.10;87.70
8436;DHT22;4255;48.730;9.156;2022-08-25T16:31:34;32.30;87.90
8436;DHT22;4255;48.730;9.156;2022-08-25T16:34:00;32.30;86.90
8436;DHT22;4255;48.730;9.156;2022-08-25T16:36:27;32.20;87.80
8436;DHT22;4255;48.730;9.156;2022-08-25T16:38:53;32.30;87.50
8436;DHT22;4255;48.730;9.156;2022-08-25T16:41:25;32.40;87.30
8436;DHT22;4255;48.730;9.156;2022-08-25T16:43:59;32.60;86.70
8436;DHT22;4255;48.730;9.156;2022-08-25T16:46:24;32.40;86.70
8436;DHT22;4255;48.730;9.156;2022-08-25T16:48:52;32.30;87.20
8436;DHT22;4255;48.730;9.156;2022-08-25T16:51:19;31.90;88.20
8436;DHT22;4255;48.730;9.156;2022-08-25T16:53:46;31.70;88.90
8436;DHT22;4255;48.730;9.156;2022-08-25T16:56:32;31.70;89.20
8436;DHT22;4255;48.730;9.156;2022-08-25T16:59:01;32.00;88.70
8436;DHT22;4255;48.730;9.156;2022-08-25T17:01:28;32.10;86.50
8436;DHT22;4255;48.730;9.156;2022-08-25T17:03:56;32.40;87.40
8436;DHT22;4255;48.730;9.156;2022-08-25T17:06:24;33.10;86.90
8436;DHT22;4255;48.730;9.156;2022-08-25T17:08:50;33.50;85.20
8436;DHT22;4255;48.730;9.156;2022-08-25T17:11:27;34.20;85.00
8436;DHT22;4255;48.730;9.156;2022-08-25T17:13:57;34.70;83.30
8436;DHT22;4255;48.730;9.156;2022-08-25T17:16:25;34.60;82.30
8436;DHT22;4255;48.730;9.156;2022-08-25T17:18:55;34.30;80.60
8436;DHT22;4255;48.730;9.156;2022-08-25T17:21:21;34.40;80.90
8436;DHT22;4255;48.730;9.156;2022-08-25T17:23:48;34.60;80.60
8436;DHT22;4255;48.730;9.156;2022-08-25T17:26:15;34.60;79.80
8436;DHT22;4255;48.730;9.156;2022-08-25T17:28:41;34.80;79.70
8436;DHT22;4255;48.730;9.156;2022-08-25T17:31:08;34.80;79.70
8436;DHT22;4255;48.730;9.156;2022-08-25T17:33:35;35.00;79.90
8436;DHT22;4255;48.730;9.156;2022-08-25T17:36:01;35.20;79.40
8436;DHT22;4255;48.730;9.156;2022-08-25T17:38:28;35.20;79.90
8436;DHT22;4255;48.730;9.156;2022-08-25T17:41:00;35.20;78.90
8436;DHT22;4255;48.730;9.156;2022-08-25T17:43:27;35.10;79.00
8436;DHT22;4255;48.730;9.156;2022-08-25T17:45:54;34.60;79.30
8436;DHT22;4255;48.730;9.156;2022-08-25T17:48:22;34.20;80.40
8436;DHT22;4255;48.730;9.156;2022-08-25T17:50:48;34.00;81.00
8436;DHT22;4255;48.730;9.156;2022-08-25T17:53:14;33.90;81.30
8436;DHT22;4255;48.730;9.156;2022-08-25T17:55:40;33.50;81.50
8436;DHT22;4255;48.730;9.156;2022-08-25T17:58:07;33.20;82.40
8436;DHT22;4255;48.730;9.156;2022-08-25T18:00:33;33.00;83.30
8436;DHT22;4255;48.730;9.156;2022-08-25T18:02:59;32.60;84.00
8436;DHT22;4255;48.730;9.156;2022-08-25T18:05:26;32.30;84.80
8436;DHT22;4255;48.730;9.156;2022-08-25T18:07:52;32.00;85.60
8436;DHT22;4255;48.730;9.156;2022-08-25T18:10:19;31.70;86.40
8436;DHT22;4255;48.730;9.156;2022-08-25T18:12:45;31.30;87.00
8436;DHT22;4255;48.730;9.156;2022-08-25T18:15:11;31.00;88.10
8436;DHT22;4255;48.730;9.156;2022-08-25T18:17:37;30.60;89.20
8436;DHT22;4255;48.730;9.156;2022-08-25T18:20:05;30.30;90.20
8436;DHT22;4255;48.730;9.156;2022-08-25T18:22:33;29.90;90.80
8436;DHT22;4255;48.730;9.156;2022-08-25T18:25:00;29.60;91.30